Austin Reinauer — WCX8055 — position and weather

sailwx.info

Track history (hours):
 
Tides and Currents Weather Stations Pressure Air Temp Water Temp Dewpoint Dewpoint Depression Visibility Wind Speed Wind Dir Waves Ship Positions

Austin Reinauer

Owner: REINAUER TRANSPORTATION CO. LLC, STATEN ISLAND, NY. More information available from US FCC via Universal Licensing System and Coast Guard Vessel Documentation Center.

Last reported at 2018-Jan-18 07:30 UTC. Time now 2018-Jan-18 07:58 UTC.
Position N 40°39' W 074°05'.

Length 33 m; draft 6.7 m.

Type: . MMSI: 366739920.

Date/timePositionNaut miles runAvg speedWind from/ knotsBaromVisibWave heightAir tempDewpointWater temp
2018-Jan-18 07:30N 40°39' W 074°05'2 4.1
2018-Jan-18 07:00N 40°39' W 074°03'0 0.0
2018-Jan-18 06:30N 40°39' W 074°03'0 0.0
2018-Jan-18 06:00N 40°39' W 074°03'0 0.0
2018-Jan-18 05:30N 40°39' W 074°03'0 0.0
2018-Jan-18 05:00N 40°39' W 074°03'0 0.0
2018-Jan-18 04:30N 40°39' W 074°03'0 0.0
2018-Jan-18 04:00N 40°39' W 074°03'0 0.0
2018-Jan-18 03:30N 40°39' W 074°03'0 0.0
2018-Jan-18 03:00N 40°39' W 074°03'0 0.1
2018-Jan-18 02:30N 40°39' W 074°02'0 0.1
2018-Jan-18 02:00N 40°39' W 074°02'0 0.0
2018-Jan-18 01:30N 40°39' W 074°02'0 0.0
2018-Jan-18 01:00N 40°39' W 074°02'0 0.0
2018-Jan-18 00:00N 40°39' W 074°02'0 0.1
2018-Jan-17 23:57N 40°39' W 074°02'  
2018-Jan-12 14:52N 40°33' W 074°15'0 0.0
2018-Jan-12 14:28N 40°33' W 074°15'0 0.0
2018-Jan-12 13:40N 40°33' W 074°15'0 0.0
2018-Jan-12 13:19N 40°33' W 074°15'0 0.0
2018-Jan-12 12:55N 40°33' W 074°15'0 0.0
2018-Jan-12 12:25N 40°33' W 074°15'0 0.0
2018-Jan-12 11:58N 40°33' W 074°15'0 0.0
2018-Jan-12 11:28N 40°33' W 074°15'0 0.0
2018-Jan-12 10:55N 40°33' W 074°15'0 0.0
2018-Jan-12 10:25N 40°33' W 074°15'0 0.0
2018-Jan-12 09:58N 40°33' W 074°15'0 0.0
2018-Jan-12 09:28N 40°33' W 074°15'0 0.0
2018-Jan-12 09:01N 40°33' W 074°15'0 0.0
2018-Jan-12 08:31N 40°33' W 074°15'0 0.0
2018-Jan-12 08:01N 40°33' W 074°15'0 0.0
2018-Jan-12 07:30N 40°33' W 074°15'0 0.0
2018-Jan-12 07:00N 40°33' W 074°15'0 0.0
2018-Jan-12 06:24N 40°33' W 074°15'0 0.0
2018-Jan-12 05:51N 40°33' W 074°15'0 0.0
2018-Jan-12 05:30N 40°33' W 074°15'0 0.0
2018-Jan-12 05:00N 40°33' W 074°15'0 0.0
2018-Jan-12 04:30N 40°33' W 074°15'0 0.0
2018-Jan-12 03:57N 40°33' W 074°15'0 0.0
2018-Jan-12 03:29N 40°33' W 074°15'0 0.6
2018-Jan-12 03:00N 40°33' W 074°15'3 5.9
2018-Jan-12 02:27N 40°35' W 074°12'3 6.9
2018-Jan-12 02:00N 40°38' W 074°12'4 8.1
2018-Jan-12 01:30N 40°39' W 074°06'5 9.2
2018-Jan-12 01:00N 40°41' W 074°01'6110.2
2018-Jan-11 19:01N 41°06' W 072°47'010.5
2018-Jan-11 18:58N 41°06' W 072°47'510.5
2018-Jan-11 18:30N 41°07' W 072°40'6 9.9
2018-Jan-11 17:57N 41°08' W 072°33'5 9.6
2018-Jan-11 17:27N 41°10' W 072°27'4 8.6
2018-Jan-11 17:00N 41°11' W 072°22'4 8.3
2018-Jan-11 16:30N 41°12' W 072°17'44 8.8
2018-Jan-11 11:31N 41°28' W 071°23'3 9.6
2018-Jan-11 11:14N 41°30' W 071°21'311.2
2018-Jan-11 11:00N 41°33' W 071°20'510.8
2018-Jan-11 10:30N 41°37' W 071°17'4 8.3
2018-Jan-11 10:00N 41°40' W 071°12'0 0.5
2018-Jan-11 09:08N 41°40' W 071°12'0 0.7
2018-Jan-11 09:00N 41°40' W 071°12'0 0.1
2018-Jan-11 07:44N 41°40' W 071°12'0 0.0
2018-Jan-10 19:13N 41°40' W 071°12'0 0.2
2018-Jan-10 18:57N 41°40' W 071°12'1 1.6
2018-Jan-10 18:27N 41°40' W 071°13'4 8.4
2018-Jan-10 18:00N 41°38' W 071°17'131 4.8
2018-Jan-09 14:43N 40°46' W 073°57'1 3.5
2018-Jan-09 14:30N 40°45' W 073°58'2 4.3
2018-Jan-09 14:00N 40°43' W 073°58'3 6.2
2018-Jan-09 13:30N 40°41' W 074°01'3 1.3
2018-Jan-09 11:32N 40°39' W 074°03'0 0.1
2018-Jan-09 11:25N 40°39' W 074°03'0 0.1
2018-Jan-09 11:01N 40°39' W 074°03'0 0.0
2018-Jan-09 10:31N 40°39' W 074°03'0 0.1
2018-Jan-09 10:01N 40°39' W 074°03'0 0.1
2018-Jan-09 09:30N 40°39' W 074°03'0 0.3
2018-Jan-09 09:01N 40°39' W 074°03'3 4.6
2018-Jan-09 08:22N 40°39' W 074°07'0 0.5
2018-Jan-09 08:00N 40°39' W 074°07'0 0.0
2018-Jan-08 23:01N 40°39' W 074°07'1 1.4
2018-Jan-08 22:30N 40°38' W 074°08'0 0.0
2018-Jan-08 22:01N 40°38' W 074°08'0 0.0
2018-Jan-08 21:30N 40°38' W 074°08'0 0.0
2018-Jan-08 21:00N 40°38' W 074°08'0 0.0
2018-Jan-08 20:30N 40°38' W 074°08'0 0.0
2018-Jan-08 20:01N 40°38' W 074°08'0 0.0
2018-Jan-08 19:30N 40°38' W 074°08'0 0.0
2018-Jan-08 19:00N 40°38' W 074°08'0 0.0
2018-Jan-08 18:30N 40°38' W 074°08'0 0.2
2018-Jan-08 17:34N 40°39' W 074°08'0 0.2
2018-Jan-08 16:58N 40°38' W 074°08'1 1.3
2018-Jan-08 16:27N 40°39' W 074°07'0 0.0
2018-Jan-08 15:57N 40°39' W 074°07'0 0.1
2018-Jan-08 11:39N 40°39' W 074°07'0 0.1
2018-Jan-08 11:26N 40°39' W 074°07'0 0.7
2018-Jan-08 11:00N 40°39' W 074°07'0 0.0
2018-Jan-08 10:30N 40°39' W 074°07'0 0.0
2018-Jan-08 10:00N 40°39' W 074°07'0 0.0
2018-Jan-08 09:27N 40°39' W 074°07'0 0.0
2018-Jan-08 09:00N 40°39' W 074°07'0 0.0
2018-Jan-08 08:27N 40°39' W 074°07'0 0.0
2018-Jan-08 08:00N 40°39' W 074°07'  
Track history (hours):
 
Tides and Currents Weather Stations Pressure Air Temp Water Temp Dewpoint Dewpoint Depression Visibility Wind Speed Wind Dir Waves Ship Positions

Austin Reinauer

Owner: REINAUER TRANSPORTATION CO. LLC, STATEN ISLAND, NY. More information available from US FCC via Universal Licensing System and Coast Guard Vessel Documentation Center.

Last reported at 2018-Jan-18 07:30 UTC. Time now 2018-Jan-18 07:58 UTC.
Position N 40°39' W 074°05'.

Length 33 m; draft 6.7 m.

Type: . MMSI: 366739920.

Date/timePositionNaut miles runAvg speedWind from/ knotsBaromVisibWave heightAir tempDewpointWater temp
2018-Jan-18 07:30N 40°39' W 074°05'2 4.1
2018-Jan-18 07:00N 40°39' W 074°03'0 0.0
2018-Jan-18 06:30N 40°39' W 074°03'0 0.0
2018-Jan-18 06:00N 40°39' W 074°03'0 0.0
2018-Jan-18 05:30N 40°39' W 074°03'0 0.0
2018-Jan-18 05:00N 40°39' W 074°03'0 0.0
2018-Jan-18 04:30N 40°39' W 074°03'0 0.0
2018-Jan-18 04:00N 40°39' W 074°03'0 0.0
2018-Jan-18 03:30N 40°39' W 074°03'0 0.0
2018-Jan-18 03:00N 40°39' W 074°03'0 0.1
2018-Jan-18 02:30N 40°39' W 074°02'0 0.1
2018-Jan-18 02:00N 40°39' W 074°02'0 0.0
2018-Jan-18 01:30N 40°39' W 074°02'0 0.0
2018-Jan-18 01:00N 40°39' W 074°02'0 0.0
2018-Jan-18 00:00N 40°39' W 074°02'0 0.1
2018-Jan-17 23:57N 40°39' W 074°02'  
2018-Jan-12 14:52N 40°33' W 074°15'0 0.0
2018-Jan-12 14:28N 40°33' W 074°15'0 0.0
2018-Jan-12 13:40N 40°33' W 074°15'0 0.0
2018-Jan-12 13:19N 40°33' W 074°15'0 0.0
2018-Jan-12 12:55N 40°33' W 074°15'0 0.0
2018-Jan-12 12:25N 40°33' W 074°15'0 0.0
2018-Jan-12 11:58N 40°33' W 074°15'0 0.0
2018-Jan-12 11:28N 40°33' W 074°15'0 0.0
2018-Jan-12 10:55N 40°33' W 074°15'0 0.0
2018-Jan-12 10:25N 40°33' W 074°15'0 0.0
2018-Jan-12 09:58N 40°33' W 074°15'0 0.0
2018-Jan-12 09:28N 40°33' W 074°15'0 0.0
2018-Jan-12 09:01N 40°33' W 074°15'0 0.0
2018-Jan-12 08:31N 40°33' W 074°15'0 0.0
2018-Jan-12 08:01N 40°33' W 074°15'0 0.0
2018-Jan-12 07:30N 40°33' W 074°15'0 0.0
2018-Jan-12 07:00N 40°33' W 074°15'0 0.0
2018-Jan-12 06:24N 40°33' W 074°15'0 0.0
2018-Jan-12 05:51N 40°33' W 074°15'0 0.0
2018-Jan-12 05:30N 40°33' W 074°15'0 0.0
2018-Jan-12 05:00N 40°33' W 074°15'0 0.0
2018-Jan-12 04:30N 40°33' W 074°15'0 0.0
2018-Jan-12 03:57N 40°33' W 074°15'0 0.0
2018-Jan-12 03:29N 40°33' W 074°15'0 0.6
2018-Jan-12 03:00N 40°33' W 074°15'3 5.9
2018-Jan-12 02:27N 40°35' W 074°12'3 6.9
2018-Jan-12 02:00N 40°38' W 074°12'4 8.1
2018-Jan-12 01:30N 40°39' W 074°06'5 9.2
2018-Jan-12 01:00N 40°41' W 074°01'6110.2
2018-Jan-11 19:01N 41°06' W 072°47'010.5
2018-Jan-11 18:58N 41°06' W 072°47'510.5
2018-Jan-11 18:30N 41°07' W 072°40'6 9.9
2018-Jan-11 17:57N 41°08' W 072°33'5 9.6
2018-Jan-11 17:27N 41°10' W 072°27'4 8.6
2018-Jan-11 17:00N 41°11' W 072°22'4 8.3
2018-Jan-11 16:30N 41°12' W 072°17'44 8.8
2018-Jan-11 11:31N 41°28' W 071°23'3 9.6
2018-Jan-11 11:14N 41°30' W 071°21'311.2
2018-Jan-11 11:00N 41°33' W 071°20'510.8
2018-Jan-11 10:30N 41°37' W 071°17'4 8.3
2018-Jan-11 10:00N 41°40' W 071°12'0 0.5
2018-Jan-11 09:08N 41°40' W 071°12'0 0.7
2018-Jan-11 09:00N 41°40' W 071°12'0 0.1
2018-Jan-11 07:44N 41°40' W 071°12'0 0.0
2018-Jan-10 19:13N 41°40' W 071°12'0 0.2
2018-Jan-10 18:57N 41°40' W 071°12'1 1.6
2018-Jan-10 18:27N 41°40' W 071°13'4 8.4
2018-Jan-10 18:00N 41°38' W 071°17'131 4.8
2018-Jan-09 14:43N 40°46' W 073°57'1 3.5
2018-Jan-09 14:30N 40°45' W 073°58'2 4.3
2018-Jan-09 14:00N 40°43' W 073°58'3 6.2
2018-Jan-09 13:30N 40°41' W 074°01'3 1.3
2018-Jan-09 11:32N 40°39' W 074°03'0 0.1
2018-Jan-09 11:25N 40°39' W 074°03'0 0.1
2018-Jan-09 11:01N 40°39' W 074°03'0 0.0
2018-Jan-09 10:31N 40°39' W 074°03'0 0.1
2018-Jan-09 10:01N 40°39' W 074°03'0 0.1
2018-Jan-09 09:30N 40°39' W 074°03'0 0.3
2018-Jan-09 09:01N 40°39' W 074°03'3 4.6
2018-Jan-09 08:22N 40°39' W 074°07'0 0.5
2018-Jan-09 08:00N 40°39' W 074°07'0 0.0
2018-Jan-08 23:01N 40°39' W 074°07'1 1.4
2018-Jan-08 22:30N 40°38' W 074°08'0 0.0
2018-Jan-08 22:01N 40°38' W 074°08'0 0.0
2018-Jan-08 21:30N 40°38' W 074°08'0 0.0
2018-Jan-08 21:00N 40°38' W 074°08'0 0.0
2018-Jan-08 20:30N 40°38' W 074°08'0 0.0
2018-Jan-08 20:01N 40°38' W 074°08'0 0.0
2018-Jan-08 19:30N 40°38' W 074°08'0 0.0
2018-Jan-08 19:00N 40°38' W 074°08'0 0.0
2018-Jan-08 18:30N 40°38' W 074°08'0 0.2
2018-Jan-08 17:34N 40°39' W 074°08'0 0.2
2018-Jan-08 16:58N 40°38' W 074°08'1 1.3
2018-Jan-08 16:27N 40°39' W 074°07'0 0.0
2018-Jan-08 15:57N 40°39' W 074°07'0 0.1
2018-Jan-08 11:39N 40°39' W 074°07'0 0.1
2018-Jan-08 11:26N 40°39' W 074°07'0 0.7
2018-Jan-08 11:00N 40°39' W 074°07'0 0.0
2018-Jan-08 10:30N 40°39' W 074°07'0 0.0
2018-Jan-08 10:00N 40°39' W 074°07'0 0.0
2018-Jan-08 09:27N 40°39' W 074°07'0 0.0
2018-Jan-08 09:00N 40°39' W 074°07'0 0.0
2018-Jan-08 08:27N 40°39' W 074°07'0 0.0
2018-Jan-08 08:00N 40°39' W 074°07'  

Dump ship's entire track history